createdAt,value
2018-03-26T00:01:57.169Z,94216.90
2018-03-26T00:04:25.429Z,94219.80
2018-03-26T00:06:54.443Z,94212.29
2018-03-26T00:09:22.706Z,94213.14
2018-03-26T00:11:51.712Z,94215.88
2018-03-26T00:14:20.727Z,94210.83
2018-03-26T00:16:48.981Z,94209.34
2018-03-26T00:19:18.009Z,94208.02
2018-03-26T00:21:46.262Z,94202.53
2018-03-26T00:24:15.288Z,94202.19
2018-03-26T00:26:43.541Z,94199.42
2018-03-26T00:29:12.556Z,94196.95
2018-03-26T00:31:40.821Z,94206.04
2018-03-26T00:34:09.969Z,94205.48
2018-03-26T00:36:38.218Z,94203.42
2018-03-26T00:39:06.539Z,94195.30
2018-03-26T00:41:34.784Z,94198.77
2018-03-26T00:44:03.054Z,94197.23
2018-03-26T00:46:31.295Z,94205.63
2018-03-26T00:48:59.535Z,94206.23
2018-03-26T00:51:27.799Z,94203.08
2018-03-26T00:53:56.040Z,94202.39
2018-03-26T00:56:24.449Z,94204.63
2018-03-26T00:58:53.456Z,94193.72
2018-03-26T01:01:21.704Z,94194.30
2018-03-26T01:03:49.970Z,94193.33
2018-03-26T01:06:18.212Z,94193.69
2018-03-26T01:08:46.470Z,94195.92
2018-03-26T01:11:14.734Z,94191.51
2018-03-26T01:13:43.758Z,94193.56
2018-03-26T01:16:12.000Z,94201.27
2018-03-26T01:18:40.260Z,94206.16
2018-03-26T01:21:08.515Z,94213.83
2018-03-26T01:23:36.748Z,94207.70
2018-03-26T01:26:05.771Z,94206.22
2018-03-26T01:28:34.019Z,94205.97
2018-03-26T01:31:02.275Z,94209.25
2018-03-26T01:33:30.540Z,94208.59
2018-03-26T01:35:58.782Z,94212.54
2018-03-26T01:38:27.809Z,94213.86
2018-03-26T01:40:56.074Z,94212.44
2018-03-26T01:43:24.324Z,94216.31
2018-03-26T01:45:52.565Z,94219.44
2018-03-26T01:48:20.840Z,94222.02
2018-03-26T01:50:49.102Z,94209.45
2018-03-26T01:53:17.364Z,94208.69
2018-03-26T01:55:45.619Z,94205.63
2018-03-26T01:58:13.879Z,94210.05
2018-03-26T02:00:42.122Z,94206.42
2018-03-26T02:03:10.405Z,94213.63
2018-03-26T02:05:38.659Z,94206.25
2018-03-26T02:08:07.672Z,94211.33
2018-03-26T02:10:35.930Z,94213.60
2018-03-26T02:13:05.013Z,94217.34
2018-03-26T02:15:33.203Z,94233.18
2018-03-26T02:18:02.232Z,94238.28
2018-03-26T02:20:30.490Z,94250.59
2018-03-26T02:22:59.496Z,94252.17
2018-03-26T02:25:28.520Z,94259.91
2018-03-26T02:27:56.769Z,94253.25
2018-03-26T02:30:25.796Z,94249.78
2018-03-26T02:32:54.049Z,94246.42
2018-03-26T02:35:23.061Z,94246.30
2018-03-26T02:37:51.308Z,94245.34
2018-03-26T02:40:19.560Z,94252.17
2018-03-26T02:42:47.804Z,94248.16
2018-03-26T02:45:16.096Z,94242.55
2018-03-26T02:47:44.341Z,94245.28
2018-03-26T02:50:13.361Z,94249.86
2018-03-26T02:52:41.636Z,94246.59
2018-03-26T02:55:10.653Z,94235.53
2018-03-26T02:57:38.896Z,94244.12
2018-03-26T03:00:09.162Z,94249.31
2018-03-26T03:02:37.413Z,94253.87
2018-03-26T03:05:06.425Z,94256.38
2018-03-26T03:07:34.694Z,94257.94
2018-03-26T03:10:03.698Z,94245.98
2018-03-26T03:12:31.967Z,94247.81
2018-03-26T03:15:00.239Z,94247.68
2018-03-26T03:17:29.248Z,94247.05
2018-03-26T03:19:57.524Z,94247.88
2018-03-26T03:22:25.791Z,94258.30
2018-03-26T03:24:54.812Z,94257.19
2018-03-26T03:27:23.060Z,94255.42
2018-03-26T03:29:51.331Z,94258.15
2018-03-26T03:32:19.575Z,94250.87
2018-03-26T03:34:47.819Z,94260.38
2018-03-26T03:37:16.843Z,94264.34
2018-03-26T03:39:45.117Z,94272.09
2018-03-26T03:42:14.275Z,94269.83
2018-03-26T03:44:42.532Z,94281.59
2018-03-26T03:47:10.807Z,94279.90
2018-03-26T03:49:39.048Z,94272.97
2018-03-26T03:52:07.317Z,94276.47
2018-03-26T03:54:36.324Z,94271.66
2018-03-26T03:57:04.580Z,94274.70
2018-03-26T03:59:32.839Z,94276.42
2018-03-26T04:02:01.084Z,94287.51
2018-03-26T04:04:29.335Z,94287.72
2018-03-26T04:06:58.360Z,94279.80
2018-03-26T04:09:26.633Z,94284.55
2018-03-26T04:11:54.875Z,94286.01
2018-03-26T04:14:23.128Z,94283.59
2018-03-26T04:16:51.396Z,94282.11
2018-03-26T04:19:19.649Z,94288.16
2018-03-26T04:21:47.908Z,94285.63
2018-03-26T04:24:16.929Z,94286.31
2018-03-26T04:26:45.201Z,94288.11
2018-03-26T04:29:14.209Z,94292.69
2018-03-26T04:31:42.448Z,94292.98
2018-03-26T04:34:10.743Z,94290.43
2018-03-26T04:36:38.948Z,94289.03
2018-03-26T04:39:07.188Z,94290.11
2018-03-26T04:41:35.453Z,94290.53
2018-03-26T04:44:03.701Z,94296.27
2018-03-26T04:46:31.942Z,94301.06
2018-03-26T04:49:00.967Z,94301.38
2018-03-26T04:51:29.216Z,94302.22
2018-03-26T04:53:58.232Z,94307.11
2018-03-26T04:56:27.248Z,94309.21
2018-03-26T04:58:55.503Z,94312.89
2018-03-26T05:01:24.615Z,94326.84
2018-03-26T05:03:53.633Z,94328.40
2018-03-26T05:06:21.884Z,94340.78
2018-03-26T05:08:50.916Z,94324.63
2018-03-26T05:11:19.165Z,94324.54
2018-03-26T05:13:48.174Z,94328.68
2018-03-26T05:16:16.433Z,94321.31
2018-03-26T05:18:45.440Z,94328.80
2018-03-26T05:21:13.687Z,94322.58
2018-03-26T05:23:42.090Z,94327.13
2018-03-26T05:26:11.097Z,94332.16
2018-03-26T05:28:40.103Z,94337.90
2018-03-26T05:31:08.426Z,94338.66
2018-03-26T05:33:37.376Z,94341.44
2018-03-26T05:36:05.619Z,94337.98
2018-03-26T05:38:33.888Z,94342.33
2018-03-26T05:41:02.137Z,94338.47
2018-03-26T05:43:30.372Z,94351.66
2018-03-26T05:45:58.623Z,94353.77
2018-03-26T05:48:26.868Z,94364.98
2018-03-26T05:50:55.121Z,94368.97
2018-03-26T05:53:24.139Z,94363.87
2018-03-26T05:55:52.392Z,94372.02
2018-03-26T05:58:21.421Z,94372.39
2018-03-26T06:00:49.676Z,94371.11
2018-03-26T06:03:18.689Z,94377.98
2018-03-26T06:05:47.704Z,94383.72
2018-03-26T06:08:15.949Z,94377.55
2018-03-26T06:10:44.960Z,94383.05
2018-03-26T06:13:13.746Z,94386.16
2018-03-26T06:15:42.760Z,94385.61
2018-03-26T06:18:11.768Z,94382.13
2018-03-26T06:20:40.021Z,94389.94
2018-03-26T06:23:09.036Z,94386.59
2018-03-26T06:25:37.304Z,94386.06
2018-03-26T06:28:06.336Z,94383.89
2018-03-26T06:30:34.616Z,94387.47
2018-03-26T06:33:02.840Z,94393.14
2018-03-26T06:35:31.110Z,94390.52
2018-03-26T06:41:01.252Z,94396.09
2018-03-26T06:43:30.389Z,94398.47
2018-03-26T06:45:58.644Z,94401.11
2018-03-26T06:48:27.654Z,94410.79
2018-03-26T06:50:55.922Z,94410.56
2018-03-26T06:53:24.929Z,94411.67
2018-03-26T06:55:53.937Z,94407.52
2018-03-26T06:58:22.204Z,94416.40
2018-03-26T07:00:51.217Z,94421.53
2018-03-26T07:03:19.459Z,94427.42
2018-03-26T07:05:49.514Z,94423.09
2018-03-26T07:08:17.759Z,94420.47
2018-03-26T07:10:46.781Z,94420.95
2018-03-26T07:13:15.485Z,94425.77
2018-03-26T07:15:43.760Z,94427.20
2018-03-26T07:18:12.000Z,94421.73
2018-03-26T07:20:40.267Z,94422.36
2018-03-26T07:23:08.524Z,94428.23
2018-03-26T07:25:36.764Z,94426.55
2018-03-26T07:28:05.796Z,94428.06
2018-03-26T07:30:34.040Z,94432.00
2018-03-26T07:33:03.052Z,94437.25
2018-03-26T07:35:31.317Z,94440.92
2018-03-26T07:38:00.330Z,94446.73
2018-03-26T07:40:29.348Z,94446.17
2018-03-26T07:42:57.624Z,94447.92
2018-03-26T07:45:25.873Z,94449.70
2018-03-26T07:47:54.884Z,94445.73
2018-03-26T07:50:23.899Z,94442.81
2018-03-26T07:52:52.159Z,94445.70
2018-03-26T07:55:20.405Z,94451.97
2018-03-26T07:57:49.664Z,94454.48
2018-03-26T08:00:17.928Z,94460.64
2018-03-26T08:02:46.176Z,94454.64
2018-03-26T08:05:14.415Z,94460.47
2018-03-26T08:07:42.671Z,94469.77
2018-03-26T08:10:10.940Z,94469.98
2018-03-26T08:12:39.947Z,94465.45
2018-03-26T08:15:08.208Z,94475.58
2018-03-26T08:17:37.268Z,94473.60
2018-03-26T08:20:05.512Z,94480.45
2018-03-26T08:22:33.779Z,94478.58
2018-03-26T08:25:02.807Z,94489.19
2018-03-26T08:27:31.060Z,94490.26
2018-03-26T08:30:01.312Z,94488.77
2018-03-26T08:32:29.606Z,94491.80
2018-03-26T08:34:57.868Z,94490.91
2018-03-26T08:37:26.125Z,94494.84
2018-03-26T08:39:55.848Z,94501.92
2018-03-26T08:42:24.134Z,94490.61
2018-03-26T08:44:53.120Z,94491.17
2018-03-26T08:47:21.371Z,94499.07
2018-03-26T08:49:49.711Z,94498.98
2018-03-26T08:52:17.880Z,94503.96
2018-03-26T08:54:46.139Z,94505.00
2018-03-26T08:57:15.156Z,94510.46
2018-03-26T08:59:43.429Z,94509.48
2018-03-26T09:02:11.667Z,94509.89
2018-03-26T09:04:39.912Z,94506.62
2018-03-26T09:07:08.168Z,94510.42
2018-03-26T09:09:36.426Z,94508.22
2018-03-26T09:12:06.691Z,94511.39
2018-03-26T09:14:34.944Z,94513.37
2018-03-26T09:17:03.213Z,94517.79
2018-03-26T09:19:32.236Z,94514.30
2018-03-26T09:22:00.491Z,94518.89
2018-03-26T09:24:29.514Z,94517.62
2018-03-26T09:26:57.776Z,94520.22
2018-03-26T09:29:26.787Z,94519.80
2018-03-26T09:31:55.047Z,94521.10
2018-03-26T09:34:24.072Z,94526.75
2018-03-26T09:36:52.337Z,94527.84
2018-03-26T09:39:20.579Z,94525.77
2018-03-26T09:41:48.835Z,94521.86
2018-03-26T09:44:17.096Z,94520.93
2018-03-26T09:46:45.345Z,94521.91
2018-03-26T09:49:14.372Z,94519.23
2018-03-26T09:51:42.632Z,94523.27
2018-03-26T09:54:11.699Z,94524.39
2018-03-26T09:56:39.968Z,94527.13
2018-03-26T09:59:08.215Z,94525.47
2018-03-26T10:04:34.161Z,94535.17
2018-03-26T10:07:02.404Z,94530.38
2018-03-26T10:09:30.660Z,94540.04
2018-03-26T10:11:58.924Z,94536.00
2018-03-26T10:14:27.187Z,94536.84
2018-03-26T10:16:55.440Z,94533.25
2018-03-26T10:19:23.700Z,94535.81
2018-03-26T10:21:52.712Z,94524.77
2018-03-26T10:24:20.960Z,94543.14
2018-03-26T10:26:49.232Z,94540.86
2018-03-26T10:29:17.519Z,94536.00
2018-03-26T10:31:45.758Z,94541.16
2018-03-26T10:34:14.014Z,94540.28
2018-03-26T10:36:42.269Z,94544.51
2018-03-26T10:39:10.520Z,94547.95
2018-03-26T10:41:38.774Z,94545.25
2018-03-26T10:44:07.020Z,94544.75
2018-03-26T10:46:36.057Z,94547.41
2018-03-26T10:49:04.304Z,94539.05
2018-03-26T10:51:33.324Z,94538.67
2018-03-26T10:54:01.597Z,94540.29
2018-03-26T10:56:29.872Z,94539.86
2018-03-26T10:58:58.127Z,94539.45
2018-03-26T11:01:26.370Z,94543.28
2018-03-26T11:03:54.632Z,94548.12
2018-03-26T11:06:22.901Z,94545.67
2018-03-26T11:08:51.160Z,94549.73
2018-03-26T11:11:20.180Z,94551.43
2018-03-26T11:13:48.460Z,94550.47
2018-03-26T11:16:16.869Z,94541.86
2018-03-26T11:18:45.026Z,94544.16
2018-03-26T11:21:13.285Z,94540.02
2018-03-26T11:23:41.541Z,94541.22
2018-03-26T11:26:09.796Z,94536.89
2018-03-26T11:28:38.040Z,94537.38
2018-03-26T11:31:06.299Z,94539.80
2018-03-26T11:33:34.548Z,94537.30
2018-03-26T11:36:03.477Z,94537.64
2018-03-26T11:38:32.525Z,94539.64
2018-03-26T11:41:00.793Z,94540.60
2018-03-26T11:43:29.040Z,94540.60
2018-03-26T11:45:57.338Z,94534.14
2018-03-26T11:48:25.571Z,94531.66
2018-03-26T11:50:53.825Z,94534.86
2018-03-26T11:53:22.089Z,94529.27
2018-03-26T11:55:50.336Z,94536.16
2018-03-26T11:58:18.600Z,94524.15
2018-03-26T12:00:47.619Z,94531.42
2018-03-26T12:03:15.899Z,94528.72
2018-03-26T12:05:44.139Z,94527.08
2018-03-26T12:08:12.412Z,94521.83
2018-03-26T12:10:40.727Z,94528.17
2018-03-26T12:13:09.753Z,94529.27
2018-03-26T12:15:38.000Z,94527.86
2018-03-26T12:18:07.041Z,94534.39
2018-03-26T12:20:52.809Z,94530.34
2018-03-26T12:23:38.780Z,94525.81
2018-03-26T12:26:07.796Z,94528.96
2018-03-26T12:28:53.547Z,94527.87
2018-03-26T12:31:22.565Z,94519.77
2018-03-26T12:34:08.340Z,94533.79
2018-03-26T12:36:36.602Z,94528.72
2018-03-26T12:39:05.621Z,94526.25
2018-03-26T12:41:33.876Z,94525.31
2018-03-26T12:44:02.897Z,94525.77
2018-03-26T12:46:41.786Z,94527.39
2018-03-26T12:49:10.029Z,94527.59
2018-03-26T12:51:55.868Z,94528.69
2018-03-26T12:54:24.125Z,94531.44
2018-03-26T12:57:10.073Z,94519.46
2018-03-26T12:59:38.333Z,94523.26
2018-03-26T13:02:20.949Z,94521.61
2018-03-26T13:04:50.445Z,94521.09
2018-03-26T13:07:18.695Z,94524.10
2018-03-26T13:09:47.723Z,94524.75
2018-03-26T13:12:15.964Z,94526.59
2018-03-26T13:14:44.221Z,94531.38
2018-03-26T13:17:12.492Z,94532.77
2018-03-26T13:19:40.740Z,94535.14
2018-03-26T13:22:08.988Z,94536.51
2018-03-26T13:24:37.268Z,94534.55
2018-03-26T13:27:05.515Z,94529.85
2018-03-26T13:29:33.791Z,94535.92
2018-03-26T13:32:02.052Z,94533.27
2018-03-26T13:34:30.308Z,94537.80
2018-03-26T13:36:58.569Z,94534.08
2018-03-26T13:39:27.340Z,94532.12
2018-03-26T13:41:55.623Z,94540.48
2018-03-26T13:44:23.853Z,94536.67
2018-03-26T13:46:52.118Z,94543.16
2018-03-26T13:49:21.133Z,94547.93
2018-03-26T13:51:49.505Z,94550.20
2018-03-26T13:54:18.522Z,94555.83
2018-03-26T13:56:46.770Z,94562.58
2018-03-26T13:59:15.775Z,94571.91
2018-03-26T14:01:44.799Z,94579.89
2018-03-26T14:04:13.055Z,94586.38
2018-03-26T14:06:42.258Z,94590.77
2018-03-26T14:09:28.716Z,94593.54
2018-03-26T14:12:14.523Z,94602.23
2018-03-26T14:15:01.101Z,94604.44
2018-03-26T14:17:46.901Z,94601.55
2018-03-26T14:20:15.926Z,94601.46
2018-03-26T14:22:45.470Z,94606.22
2018-03-26T14:25:13.713Z,94602.70
2018-03-26T14:27:41.953Z,94604.93
2018-03-26T14:30:10.235Z,94604.99
2018-03-26T14:32:38.479Z,94609.50
2018-03-26T14:38:29.027Z,94608.34
2018-03-26T14:40:58.050Z,94604.91
2018-03-26T14:43:26.307Z,94609.01
2018-03-26T14:45:55.320Z,94604.91
2018-03-26T14:48:23.572Z,94609.02
2018-03-26T14:50:52.736Z,94610.80
2018-03-26T14:53:20.982Z,94607.20
2018-03-26T14:55:49.244Z,94610.08
2018-03-26T14:58:18.264Z,94615.30
2018-03-26T15:00:46.528Z,94610.72
2018-03-26T15:03:14.792Z,94612.91
2018-03-26T15:05:43.804Z,94621.02
2018-03-26T15:08:12.808Z,94616.84
2018-03-26T15:10:41.247Z,94620.66
2018-03-26T15:13:10.196Z,94626.64
2018-03-26T15:15:38.444Z,94625.83
2018-03-26T15:18:07.475Z,94626.78
2018-03-26T15:20:35.727Z,94621.56
2018-03-26T15:23:04.737Z,94621.55
2018-03-26T15:25:33.769Z,94629.03
2018-03-26T15:28:02.018Z,94629.59
2018-03-26T15:30:31.030Z,94632.04
2018-03-26T15:32:59.288Z,94625.98
2018-03-26T15:35:28.312Z,94628.50
2018-03-26T15:37:56.581Z,94630.52
2018-03-26T15:40:24.836Z,94633.52
2018-03-26T15:42:53.859Z,94634.51
2018-03-26T15:45:22.105Z,94635.52
2018-03-26T15:47:50.386Z,94641.28
2018-03-26T15:50:18.621Z,94645.38
2018-03-26T15:52:46.881Z,94647.36
2018-03-26T15:55:15.148Z,94649.90
2018-03-26T15:57:44.151Z,94646.54
2018-03-26T16:00:12.400Z,94658.73
2018-03-26T16:02:45.922Z,94651.68
2018-03-26T16:05:14.940Z,94657.36
2018-03-26T16:07:43.181Z,94658.75
2018-03-26T16:10:11.438Z,94662.11
2018-03-26T16:12:39.685Z,94659.45
2018-03-26T16:15:07.924Z,94657.14
2018-03-26T16:17:36.953Z,94660.57
2018-03-26T16:20:05.216Z,94661.39
2018-03-26T16:22:34.247Z,94663.92
2018-03-26T16:25:02.497Z,94665.24
2018-03-26T16:27:32.747Z,94676.41
2018-03-26T16:30:01.047Z,94678.45
2018-03-26T16:32:29.515Z,94680.17
2018-03-26T16:34:57.778Z,94679.91
2018-03-26T16:37:26.037Z,94685.11
2018-03-26T16:39:55.065Z,94686.00
2018-03-26T16:42:27.951Z,94699.76
2018-03-26T16:44:57.454Z,94709.38
2018-03-26T16:47:25.699Z,94715.62
2018-03-26T16:49:53.959Z,94714.75
2018-03-26T16:52:22.220Z,94715.84
2018-03-26T16:54:50.463Z,94714.16
2018-03-26T16:57:18.764Z,94712.85
2018-03-26T16:59:47.748Z,94701.83
2018-03-26T17:02:16.029Z,94712.85
2018-03-26T17:04:44.281Z,94719.97
2018-03-26T17:07:12.536Z,94714.57
2018-03-26T17:09:40.806Z,94718.77
2018-03-26T17:12:09.052Z,94724.28
2018-03-26T17:14:37.303Z,94733.00
2018-03-26T17:17:05.586Z,94736.41
2018-03-26T17:19:34.809Z,94739.39
2018-03-26T17:22:03.111Z,94743.64
2018-03-26T17:24:31.328Z,94746.72
2018-03-26T17:26:59.599Z,94747.70
2018-03-26T17:29:27.855Z,94746.52
2018-03-26T17:31:56.131Z,94746.47
2018-03-26T17:34:24.374Z,94745.95
2018-03-26T17:36:54.630Z,94745.11
2018-03-26T17:39:22.893Z,94753.29
2018-03-26T17:41:51.899Z,94762.16
2018-03-26T17:44:20.172Z,94770.61
2018-03-26T17:46:49.188Z,94778.05
2018-03-26T17:49:17.453Z,94777.12
2018-03-26T17:51:45.704Z,94781.66
2018-03-26T17:54:13.972Z,94783.30
2018-03-26T17:56:42.216Z,94789.59
2018-03-26T17:59:10.465Z,94789.98
2018-03-26T18:01:39.484Z,94785.57
2018-03-26T18:04:07.729Z,94791.56
2018-03-26T18:06:36.017Z,94803.78
2018-03-26T18:09:04.389Z,94801.22
2018-03-26T18:11:32.639Z,94804.32
2018-03-26T18:14:00.904Z,94803.30
2018-03-26T18:16:29.172Z,94795.41
2018-03-26T18:18:59.428Z,94800.11
2018-03-26T18:21:27.696Z,94791.85
2018-03-26T18:23:55.962Z,94788.41
2018-03-26T18:26:24.204Z,94784.33
2018-03-26T18:28:53.112Z,94781.13
2018-03-26T18:31:22.151Z,94784.41
2018-03-26T18:33:50.394Z,94782.13
2018-03-26T18:36:19.425Z,94783.88
2018-03-26T18:38:47.682Z,94795.95
2018-03-26T18:41:15.924Z,94790.98
2018-03-26T18:43:44.192Z,94791.80
2018-03-26T18:46:12.436Z,94792.17
2018-03-26T18:48:40.692Z,94791.41
2018-03-26T18:51:08.947Z,94794.61
2018-03-26T18:53:37.194Z,94802.52
2018-03-26T18:56:05.447Z,94809.50
2018-03-26T18:58:33.702Z,94809.84
2018-03-26T19:01:02.707Z,94809.13
2018-03-26T19:03:30.959Z,94814.12
2018-03-26T19:05:59.212Z,94816.95
2018-03-26T19:08:27.471Z,94819.70
2018-03-26T19:10:55.733Z,94814.78
2018-03-26T19:13:24.742Z,94822.02
2018-03-26T19:15:53.008Z,94824.68
2018-03-26T19:18:21.265Z,94821.14
2018-03-26T19:20:49.528Z,94830.58
2018-03-26T19:23:17.801Z,94836.34
2018-03-26T19:25:46.060Z,94836.73
2018-03-26T19:28:14.303Z,94847.84
2018-03-26T19:30:43.329Z,94853.03
2018-03-26T19:33:11.592Z,94866.74
2018-03-26T19:35:39.846Z,94868.84
2018-03-26T19:38:08.100Z,94861.27
2018-03-26T19:40:37.872Z,94865.80
2018-03-26T19:43:06.132Z,94871.05
2018-03-26T19:45:35.155Z,94875.75
2018-03-26T19:48:03.417Z,94878.16
2018-03-26T19:50:32.434Z,94874.01
2018-03-26T19:53:00.697Z,94877.08
2018-03-26T19:55:29.728Z,94878.40
2018-03-26T19:57:57.977Z,94878.63
2018-03-26T20:00:26.225Z,94876.93
2018-03-26T20:02:54.483Z,94883.89
2018-03-26T20:05:22.736Z,94879.80
2018-03-26T20:07:50.998Z,94883.59
2018-03-26T20:10:19.265Z,94881.63
2018-03-26T20:12:49.518Z,94882.06
2018-03-26T20:15:17.780Z,94879.36
2018-03-26T20:17:46.809Z,94878.05
2018-03-26T20:20:15.040Z,94872.26
2018-03-26T20:22:44.070Z,94874.00
2018-03-26T20:25:12.350Z,94874.69
2018-03-26T20:27:40.592Z,94875.27
2018-03-26T20:30:08.856Z,94889.28
2018-03-26T20:32:37.103Z,94881.61
2018-03-26T20:35:05.369Z,94886.48
2018-03-26T20:37:33.636Z,94880.66
2018-03-26T20:40:02.657Z,94888.48
2018-03-26T20:42:30.916Z,94889.09
2018-03-26T20:44:59.934Z,94886.16
2018-03-26T20:47:28.192Z,94892.30
2018-03-26T20:49:57.238Z,94889.62
2018-03-26T20:52:25.485Z,94892.03
2018-03-26T20:54:54.625Z,94886.91
2018-03-26T20:57:22.884Z,94887.37
2018-03-26T20:59:51.156Z,94891.00
2018-03-26T21:02:19.412Z,94882.78
2018-03-26T21:04:47.665Z,94880.88
2018-03-26T21:07:15.920Z,94884.64
2018-03-26T21:09:44.872Z,94884.56
2018-03-26T21:12:13.144Z,94889.71
2018-03-26T21:14:42.162Z,94889.75
2018-03-26T21:17:10.424Z,94887.57
2018-03-26T21:19:39.434Z,94885.09
2018-03-26T21:22:07.697Z,94881.56
2018-03-26T21:24:36.710Z,94880.41
2018-03-26T21:27:06.343Z,94883.15
2018-03-26T21:29:34.596Z,94879.93
2018-03-26T21:32:02.851Z,94880.62
2018-03-26T21:34:31.120Z,94874.94
2018-03-26T21:36:59.944Z,94873.57
2018-03-26T21:39:28.947Z,94873.63
2018-03-26T21:41:57.968Z,94880.34
2018-03-26T21:44:26.226Z,94882.09
2018-03-26T21:46:55.246Z,94878.89
2018-03-26T21:49:23.488Z,94878.95
2018-03-26T21:51:52.516Z,94885.13
2018-03-26T21:54:20.772Z,94881.84
2018-03-26T21:56:49.794Z,94880.41
2018-03-26T21:59:18.046Z,94878.28
2018-03-26T22:01:46.300Z,94886.16
2018-03-26T22:04:14.541Z,94877.73
2018-03-26T22:06:42.779Z,94883.34
2018-03-26T22:09:12.219Z,94877.76
2018-03-26T22:11:40.460Z,94882.54
2018-03-26T22:14:08.723Z,94878.22
2018-03-26T22:16:36.961Z,94876.94
2018-03-26T22:19:05.228Z,94881.36
2018-03-26T22:21:34.252Z,94875.91
2018-03-26T22:24:02.519Z,94882.05
2018-03-26T22:26:30.760Z,94881.92
2018-03-26T22:28:59.012Z,94881.44
2018-03-26T22:31:27.276Z,94882.88
2018-03-26T22:33:55.531Z,94876.17
2018-03-26T22:36:23.796Z,94879.84
2018-03-26T22:38:52.817Z,94887.03
2018-03-26T22:41:21.087Z,94886.77
2018-03-26T22:43:50.093Z,94889.42
2018-03-26T22:46:18.345Z,94882.76
2018-03-26T22:48:47.374Z,94878.55
2018-03-26T22:51:15.637Z,94876.58
2018-03-26T22:53:44.656Z,94880.25
2018-03-26T22:56:12.916Z,94877.60
2018-03-26T22:58:41.926Z,94880.49
2018-03-26T23:01:11.016Z,94879.91
2018-03-26T23:03:39.262Z,94878.23
2018-03-26T23:06:07.528Z,94875.00
2018-03-26T23:08:35.788Z,94877.00
2018-03-26T23:11:04.048Z,94885.27
2018-03-26T23:13:32.304Z,94878.64
2018-03-26T23:16:01.322Z,94883.68
2018-03-26T23:18:29.581Z,94879.50
2018-03-26T23:20:58.606Z,94880.81
2018-03-26T23:23:26.860Z,94878.34
2018-03-26T23:25:55.877Z,94878.81
2018-03-26T23:28:24.406Z,94881.64
2018-03-26T23:30:52.653Z,94880.14
2018-03-26T23:33:20.892Z,94882.60
2018-03-26T23:35:49.913Z,94881.02
2018-03-26T23:38:18.165Z,94878.49
2018-03-26T23:40:46.425Z,94881.64
2018-03-26T23:43:15.725Z,94880.69
2018-03-26T23:45:43.985Z,94876.86
2018-03-26T23:48:12.231Z,94874.72
2018-03-26T23:50:41.257Z,94876.11
2018-03-26T23:53:09.514Z,94874.26
2018-03-26T23:55:38.532Z,94874.95
2018-03-26T23:58:06.784Z,94878.89
